createdAt,value
2023-05-06T00:02:11.859Z,0.20
2023-05-06T00:04:38.652Z,0.10
2023-05-06T00:07:05.590Z,0.10
2023-05-06T00:09:32.304Z,0.10
2023-05-06T00:11:59.032Z,0.10
2023-05-06T00:14:25.893Z,0.10
2023-05-06T00:16:52.652Z,0.10
2023-05-06T00:19:19.366Z,0.00
2023-05-06T00:21:46.127Z,0.10
2023-05-06T00:24:12.978Z,0.10
2023-05-06T00:26:39.707Z,0.10
2023-05-06T00:29:06.514Z,0.10
2023-05-06T00:31:33.294Z,0.10
2023-05-06T00:34:00.005Z,0.10
2023-05-06T00:36:26.844Z,0.10
2023-05-06T00:38:53.617Z,0.10
2023-05-06T00:41:20.318Z,0.10
2023-05-06T00:43:47.180Z,0.10
2023-05-06T00:46:16.938Z,0.13
2023-05-06T00:48:44.747Z,0.10
2023-05-06T00:51:12.728Z,0.10
2023-05-06T00:53:40.119Z,0.10
2023-05-06T00:56:07.502Z,0.10
2023-05-06T00:58:35.020Z,0.10
2023-05-06T01:01:02.263Z,0.10
2023-05-06T01:03:29.292Z,0.10
2023-05-06T01:05:58.960Z,0.10
2023-05-06T01:08:32.207Z,0.10
2023-05-06T01:11:10.084Z,0.08
2023-05-06T01:13:56.021Z,0.10
2023-05-06T01:16:25.387Z,0.10
2023-05-06T01:18:54.726Z,0.10
2023-05-06T01:21:22.912Z,0.00
2023-05-06T01:23:58.378Z,0.00
2023-05-06T01:26:25.800Z,0.10
2023-05-06T01:28:53.551Z,0.10
2023-05-06T01:31:49.399Z,0.10
2023-05-06T01:34:27.952Z,0.10
2023-05-06T01:37:28.752Z,0.10
2023-05-06T01:39:59.971Z,0.03
2023-05-06T01:42:27.668Z,0.10
2023-05-06T01:44:56.933Z,0.10
2023-05-06T01:47:24.286Z,0.00
2023-05-06T01:49:51.296Z,0.10
2023-05-06T01:52:18.119Z,0.10
2023-05-06T01:54:44.847Z,0.10
2023-05-06T01:57:11.574Z,0.10
2023-05-06T01:59:38.360Z,0.10
2023-05-06T02:02:05.245Z,0.10
2023-05-06T02:04:32.519Z,0.10
2023-05-06T02:06:59.301Z,0.10
2023-05-06T02:09:26.216Z,0.10
2023-05-06T02:11:52.930Z,0.10
2023-05-06T02:14:19.700Z,0.10
2023-05-06T02:16:46.466Z,0.10
2023-05-06T02:19:13.194Z,0.20
2023-05-06T02:21:39.956Z,0.10
2023-05-06T02:24:07.020Z,0.10
2023-05-06T02:26:33.750Z,0.10
2023-05-06T02:29:00.591Z,0.10
2023-05-06T02:31:27.498Z,0.10
2023-05-06T02:33:54.290Z,0.10
2023-05-06T02:36:21.036Z,0.10
2023-05-06T02:38:47.732Z,0.10
2023-05-06T02:41:14.461Z,0.10
2023-05-06T02:43:41.291Z,0.10
2023-05-06T02:46:08.470Z,0.10
2023-05-06T02:48:35.402Z,0.10
2023-05-06T02:51:02.321Z,0.00
2023-05-06T02:53:29.083Z,0.10
2023-05-06T02:55:55.830Z,0.10
2023-05-06T02:58:22.638Z,0.10
2023-05-06T03:00:49.415Z,0.10
2023-05-06T03:03:17.027Z,0.10
2023-05-06T03:05:43.785Z,0.20
2023-05-06T03:08:10.604Z,0.10
2023-05-06T03:10:37.375Z,0.10
2023-05-06T03:13:04.222Z,0.20
2023-05-06T03:15:32.062Z,0.20
2023-05-06T03:17:58.909Z,0.13
2023-05-06T03:20:25.828Z,0.13
2023-05-06T03:22:52.547Z,0.10
2023-05-06T03:25:19.276Z,0.10
2023-05-06T03:27:46.059Z,0.10
2023-05-06T03:30:13.222Z,0.10
2023-05-06T03:32:40.062Z,0.17
2023-05-06T03:35:08.527Z,0.10
2023-05-06T03:37:35.512Z,0.10
2023-05-06T03:40:04.431Z,0.10
2023-05-06T03:42:31.484Z,0.10
2023-05-06T03:44:58.224Z,0.10
2023-05-06T03:47:25.070Z,0.10
2023-05-06T03:49:51.934Z,0.10
2023-05-06T03:52:18.825Z,0.10
2023-05-06T03:54:45.868Z,0.10
2023-05-06T03:57:12.676Z,0.10
2023-05-06T03:59:39.402Z,0.10
2023-05-06T04:02:06.455Z,0.10
2023-05-06T04:04:34.471Z,0.10
2023-05-06T04:07:01.365Z,0.10
2023-05-06T04:09:28.076Z,0.10
2023-05-06T04:11:54.821Z,0.10
2023-05-06T04:14:21.581Z,0.10
2023-05-06T04:16:48.347Z,0.10
2023-05-06T04:19:15.128Z,0.10
2023-05-06T04:21:41.845Z,0.13
2023-05-06T04:24:08.696Z,0.10
2023-05-06T04:26:35.500Z,0.10
2023-05-06T04:29:02.217Z,0.00
2023-05-06T04:31:29.385Z,0.10
2023-05-06T04:33:56.205Z,0.00
2023-05-06T04:36:23.857Z,0.10
2023-05-06T04:38:52.756Z,0.10
2023-05-06T04:41:20.590Z,0.10
2023-05-06T04:43:47.303Z,0.10
2023-05-06T04:46:14.449Z,0.10
2023-05-06T04:48:41.938Z,0.10
2023-05-06T04:51:09.387Z,0.10
2023-05-06T04:53:36.189Z,0.10
2023-05-06T04:56:03.014Z,0.10
2023-05-06T04:58:29.789Z,0.10
2023-05-06T05:00:57.408Z,0.10
2023-05-06T05:03:24.297Z,0.10
2023-05-06T05:05:51.132Z,0.20
2023-05-06T05:08:17.908Z,0.10
2023-05-06T05:10:44.723Z,0.10
2023-05-06T05:13:11.618Z,0.10
2023-05-06T05:15:39.252Z,0.10
2023-05-06T05:18:06.228Z,0.10
2023-05-06T05:20:33.226Z,0.10
2023-05-06T05:22:59.957Z,0.10
2023-05-06T05:25:27.017Z,0.10
2023-05-06T05:27:53.780Z,0.10
2023-05-06T05:30:20.729Z,0.10
2023-05-06T05:32:47.509Z,0.10
2023-05-06T05:35:14.241Z,0.10
2023-05-06T05:37:40.986Z,0.10
2023-05-06T05:40:08.496Z,0.10
2023-05-06T05:42:35.254Z,0.10
2023-05-06T05:45:02.023Z,0.10
2023-05-06T05:47:28.798Z,0.10
2023-05-06T05:49:55.605Z,0.10
2023-05-06T05:52:22.422Z,0.10
2023-05-06T05:54:50.072Z,0.00
2023-05-06T05:57:16.877Z,0.08
2023-05-06T05:59:43.764Z,0.00
2023-05-06T06:02:10.819Z,0.00
2023-05-06T06:04:37.698Z,0.10
2023-05-06T06:07:05.144Z,0.00
2023-05-06T06:09:31.880Z,0.10
2023-05-06T06:11:58.589Z,0.08
2023-05-06T06:14:25.346Z,0.10
2023-05-06T06:16:52.166Z,0.10
2023-05-06T06:19:18.956Z,0.10
2023-05-06T06:21:45.665Z,0.00
2023-05-06T06:24:13.067Z,0.10
2023-05-06T06:26:39.799Z,0.03
2023-05-06T06:29:06.519Z,0.00
2023-05-06T06:31:34.887Z,0.10
2023-05-06T06:34:06.312Z,0.10
2023-05-06T06:36:33.273Z,0.10
2023-05-06T06:39:00.053Z,0.10
2023-05-06T06:41:29.537Z,0.10
2023-05-06T06:43:56.254Z,0.00
2023-05-06T06:46:23.327Z,0.10
2023-05-06T06:48:50.508Z,0.00
2023-05-06T06:51:17.285Z,0.10
2023-05-06T06:53:44.052Z,0.00
2023-05-06T06:56:14.381Z,0.10
2023-05-06T06:58:41.265Z,0.10
2023-05-06T07:01:08.376Z,0.00
2023-05-06T07:03:35.178Z,0.00
2023-05-06T07:06:01.935Z,0.10
2023-05-06T07:08:28.743Z,0.10
2023-05-06T07:10:55.570Z,0.00
2023-05-06T07:13:23.495Z,0.00
2023-05-06T07:15:50.357Z,0.00
2023-05-06T07:18:17.126Z,0.00
2023-05-06T07:20:43.900Z,0.05
2023-05-06T07:23:10.691Z,0.00
2023-05-06T07:25:37.602Z,0.10
2023-05-06T07:28:05.020Z,0.00
2023-05-06T07:30:31.873Z,0.03
2023-05-06T07:32:58.745Z,0.00
2023-05-06T07:35:25.655Z,0.00
2023-05-06T07:37:52.709Z,0.00
2023-05-06T07:40:19.433Z,0.00
2023-05-06T07:42:46.130Z,0.00
2023-05-06T07:45:13.067Z,0.00
2023-05-06T07:47:40.030Z,0.00
2023-05-06T07:50:07.686Z,0.00
2023-05-06T07:52:34.459Z,0.10
2023-05-06T07:55:01.169Z,0.03
2023-05-06T07:57:27.873Z,0.00
2023-05-06T07:59:54.697Z,0.00
2023-05-06T08:02:21.701Z,0.00
2023-05-06T08:04:50.900Z,0.00
2023-05-06T08:07:18.553Z,0.00
2023-05-06T08:09:45.482Z,0.00
2023-05-06T08:12:12.243Z,0.00
2023-05-06T08:14:39.026Z,0.00
2023-05-06T08:17:05.836Z,0.00
2023-05-06T08:19:32.617Z,0.00
2023-05-06T08:21:59.375Z,0.00
2023-05-06T08:24:26.136Z,0.00
2023-05-06T08:26:52.963Z,0.00
2023-05-06T08:29:19.827Z,0.00
2023-05-06T08:31:47.395Z,0.00
2023-05-06T08:34:14.324Z,0.00
2023-05-06T08:36:41.115Z,0.00
2023-05-06T08:39:07.833Z,0.00
2023-05-06T08:41:35.784Z,0.00
2023-05-06T08:44:05.323Z,0.00
2023-05-06T08:46:32.123Z,0.00
2023-05-06T08:48:59.837Z,0.08
2023-05-06T08:51:31.572Z,0.00
2023-05-06T08:54:02.477Z,0.00
2023-05-06T08:56:32.792Z,0.00
2023-05-06T08:59:01.287Z,0.00
2023-05-06T09:01:28.956Z,0.00
2023-05-06T09:03:58.086Z,0.00
2023-05-06T09:06:25.445Z,0.00
2023-05-06T09:08:52.305Z,0.00
2023-05-06T09:11:21.263Z,0.00
2023-05-06T09:13:48.139Z,0.00
2023-05-06T09:16:45.058Z,0.00
2023-05-06T09:19:12.644Z,0.00
2023-05-06T09:21:41.811Z,0.00
2023-05-06T09:24:10.009Z,0.00
2023-05-06T09:26:38.789Z,0.00
2023-05-06T09:29:07.051Z,0.00
2023-05-06T09:31:39.976Z,0.00
2023-05-06T09:34:07.208Z,0.00
2023-05-06T09:36:34.079Z,0.00
2023-05-06T09:39:00.922Z,0.00
2023-05-06T09:41:27.840Z,0.00
2023-05-06T09:43:56.682Z,0.00
2023-05-06T09:46:24.870Z,0.00
2023-05-06T09:48:53.226Z,0.00
2023-05-06T09:51:20.734Z,0.00
2023-05-06T09:53:47.871Z,0.00
2023-05-06T09:56:16.120Z,0.00
2023-05-06T09:58:43.159Z,0.00
2023-05-06T10:01:15.177Z,0.00
2023-05-06T10:03:47.065Z,0.00
2023-05-06T10:06:15.803Z,0.00
2023-05-06T10:08:45.969Z,0.00
2023-05-06T10:11:15.191Z,0.00
2023-05-06T10:13:42.957Z,0.00
2023-05-06T10:16:11.157Z,0.00
2023-05-06T10:18:39.186Z,0.00
2023-05-06T10:21:13.960Z,0.00
2023-05-06T10:23:49.192Z,0.00
2023-05-06T10:26:18.097Z,0.00
2023-05-06T10:28:49.724Z,0.00
2023-05-06T10:31:16.755Z,0.00
2023-05-06T10:33:47.577Z,0.00
2023-05-06T10:36:20.577Z,0.00
2023-05-06T10:38:54.863Z,0.00
2023-05-06T10:41:23.366Z,0.00
2023-05-06T10:43:56.656Z,0.00
2023-05-06T10:46:26.223Z,0.00
2023-05-06T10:49:06.176Z,0.00
2023-05-06T10:51:33.983Z,0.00
2023-05-06T10:54:08.643Z,0.00
2023-05-06T10:56:40.817Z,0.00
2023-05-06T10:59:09.894Z,0.00
2023-05-06T11:01:43.871Z,0.00
2023-05-06T11:04:19.324Z,0.00
2023-05-06T11:06:47.129Z,0.00
2023-05-06T11:09:20.802Z,0.00
2023-05-06T11:14:36.300Z,0.00
2023-05-06T11:17:05.864Z,0.00
2023-05-06T11:19:34.724Z,0.00
2023-05-06T11:22:03.723Z,0.00
2023-05-06T11:24:38.025Z,0.10
2023-05-06T11:27:05.627Z,0.00
2023-05-06T11:29:32.514Z,0.10
2023-05-06T11:31:59.543Z,0.00
2023-05-06T11:34:33.201Z,0.10
2023-05-06T11:39:36.500Z,0.00
2023-05-06T11:42:07.342Z,0.00
2023-05-06T11:44:38.949Z,0.00
2023-05-06T11:47:07.614Z,0.00
2023-05-06T11:49:38.770Z,0.00
2023-05-06T11:52:06.284Z,0.00
2023-05-06T11:54:38.788Z,0.10
2023-05-06T11:57:05.673Z,0.00
2023-05-06T11:59:33.227Z,0.00
2023-05-06T12:02:02.671Z,0.00
2023-05-06T12:04:38.093Z,0.00
2023-05-06T12:07:07.542Z,0.00
2023-05-06T12:09:36.062Z,0.00
2023-05-06T12:12:04.392Z,0.00
2023-05-06T12:14:32.184Z,0.00
2023-05-06T12:16:59.118Z,0.00
2023-05-06T12:19:26.672Z,0.00
2023-05-06T12:21:53.509Z,0.00
2023-05-06T12:24:29.945Z,0.00
2023-05-06T12:26:56.859Z,0.00
2023-05-06T12:29:23.654Z,0.00
2023-05-06T12:32:06.284Z,0.00
2023-05-06T12:34:38.327Z,0.00
2023-05-06T12:37:05.959Z,0.00
2023-05-06T12:39:37.179Z,0.00
2023-05-06T12:42:04.596Z,0.00
2023-05-06T12:44:37.089Z,0.00
2023-05-06T12:47:28.016Z,0.00
2023-05-06T12:49:58.498Z,0.00
2023-05-06T12:52:27.775Z,0.00
2023-05-06T12:54:54.614Z,0.00
2023-05-06T12:57:21.703Z,0.00
2023-05-06T12:59:49.519Z,0.00
2023-05-06T13:02:16.560Z,0.00
2023-05-06T13:04:44.474Z,0.00
2023-05-06T13:07:11.909Z,0.00
2023-05-06T13:09:38.668Z,0.00
2023-05-06T13:12:06.246Z,0.00
2023-05-06T13:14:32.964Z,0.00
2023-05-06T13:17:01.298Z,0.00
2023-05-06T13:19:32.994Z,0.00
2023-05-06T13:22:00.717Z,0.00
2023-05-06T13:24:27.867Z,0.00
2023-05-06T13:26:56.409Z,0.00
2023-05-06T13:29:23.810Z,0.00
2023-05-06T13:31:51.530Z,0.00
2023-05-06T13:34:18.728Z,0.00
2023-05-06T13:36:46.757Z,0.00
2023-05-06T13:39:13.866Z,0.00
2023-05-06T13:41:40.787Z,0.00
2023-05-06T13:44:07.601Z,0.00
2023-05-06T13:46:34.437Z,0.00
2023-05-06T13:49:01.242Z,0.00
2023-05-06T13:51:30.581Z,0.00
2023-05-06T13:53:57.518Z,0.00
2023-05-06T13:56:24.486Z,0.00
2023-05-06T13:58:53.141Z,0.00
2023-05-06T14:01:24.208Z,0.00
2023-05-06T14:03:51.268Z,0.00
2023-05-06T14:06:18.430Z,0.00
2023-05-06T14:08:45.368Z,0.00
2023-05-06T14:11:12.165Z,0.00
2023-05-06T14:13:40.631Z,0.00
2023-05-06T14:16:07.758Z,0.00
2023-05-06T14:18:34.705Z,0.00
2023-05-06T14:21:01.505Z,0.00
2023-05-06T14:23:28.231Z,0.00
2023-05-06T14:25:55.018Z,0.00
2023-05-06T14:28:21.792Z,0.00
2023-05-06T14:30:50.803Z,0.00
2023-05-06T14:33:17.581Z,0.00
2023-05-06T14:35:46.151Z,0.00
2023-05-06T14:38:13.068Z,0.00
2023-05-06T14:40:39.814Z,0.00
2023-05-06T14:43:09.400Z,0.00
2023-05-06T14:45:36.190Z,0.00
2023-05-06T14:48:03.321Z,0.00
2023-05-06T14:50:31.132Z,0.00
2023-05-06T14:52:57.912Z,0.00
2023-05-06T14:55:24.952Z,0.00
2023-05-06T14:57:51.728Z,0.00
2023-05-06T15:00:19.039Z,0.00
2023-05-06T15:02:46.295Z,0.00
2023-05-06T15:05:13.557Z,0.00
2023-05-06T15:07:41.105Z,0.00
2023-05-06T15:10:08.191Z,0.00
2023-05-06T15:12:36.395Z,0.00
2023-05-06T15:15:05.066Z,0.00
2023-05-06T15:17:32.619Z,0.10
2023-05-06T15:19:59.623Z,0.00
2023-05-06T15:22:26.453Z,0.00
2023-05-06T15:24:53.290Z,0.10
2023-05-06T15:27:20.111Z,0.00
2023-05-06T15:29:46.934Z,0.00
2023-05-06T15:32:13.695Z,0.00
2023-05-06T15:34:40.746Z,0.00
2023-05-06T15:37:08.106Z,0.00
2023-05-06T15:39:38.847Z,0.00
2023-05-06T15:42:06.168Z,0.00
2023-05-06T15:44:33.955Z,0.00
2023-05-06T15:47:00.949Z,0.00
2023-05-06T15:51:59.887Z,0.00
2023-05-06T15:54:28.090Z,0.00
2023-05-06T15:56:55.463Z,0.10
2023-05-06T15:59:22.186Z,0.00
2023-05-06T16:04:18.966Z,0.00
2023-05-06T16:06:45.883Z,0.00
2023-05-06T16:09:12.757Z,0.00
2023-05-06T16:11:39.448Z,0.00
2023-05-06T16:14:06.193Z,0.00
2023-05-06T16:16:33.025Z,0.00
2023-05-06T16:18:59.839Z,0.00
2023-05-06T16:21:27.149Z,0.00
2023-05-06T16:23:54.350Z,0.00
2023-05-06T16:26:21.299Z,0.00
2023-05-06T16:28:48.048Z,0.00
2023-05-06T16:31:14.928Z,0.00
2023-05-06T16:33:41.654Z,0.00
2023-05-06T16:36:08.902Z,0.00
2023-05-06T16:38:35.746Z,0.00
2023-05-06T16:41:02.458Z,0.00
2023-05-06T16:43:29.202Z,0.00
2023-05-06T16:45:56.278Z,0.00
2023-05-06T16:48:23.110Z,0.00
2023-05-06T16:50:49.928Z,0.00
2023-05-06T16:53:17.469Z,0.00
2023-05-06T16:55:48.798Z,0.00
2023-05-06T16:58:15.892Z,0.03
2023-05-06T17:00:42.873Z,0.00
2023-05-06T17:03:09.970Z,0.00
2023-05-06T17:05:36.959Z,0.00
2023-05-06T17:08:04.010Z,0.00
2023-05-06T17:10:30.991Z,0.00
2023-05-06T17:12:58.394Z,0.00
2023-05-06T17:15:25.777Z,0.00
2023-05-06T17:17:52.918Z,0.00
2023-05-06T17:20:20.076Z,0.00
2023-05-06T17:22:47.107Z,0.00
2023-05-06T17:25:14.155Z,0.00
2023-05-06T17:27:41.292Z,0.00
2023-05-06T17:30:11.877Z,0.00
2023-05-06T17:32:39.193Z,0.00
2023-05-06T17:35:07.465Z,0.00
2023-05-06T17:37:34.848Z,0.00
2023-05-06T17:40:02.049Z,0.00
2023-05-06T17:42:29.823Z,0.00
2023-05-06T17:44:56.596Z,0.00
2023-05-06T17:47:23.362Z,0.00
2023-05-06T17:49:54.194Z,0.00
2023-05-06T17:52:21.024Z,0.00
2023-05-06T17:55:01.430Z,0.00
2023-05-06T17:57:37.612Z,0.00
2023-05-06T18:00:05.267Z,0.00
2023-05-06T18:02:32.078Z,0.00
2023-05-06T18:04:59.150Z,0.00
2023-05-06T18:07:25.919Z,0.00
2023-05-06T18:09:53.135Z,0.00
2023-05-06T18:12:20.006Z,0.00
2023-05-06T18:14:47.861Z,0.00
2023-05-06T18:17:14.609Z,0.00
2023-05-06T18:19:41.368Z,0.00
2023-05-06T18:22:08.154Z,0.00
2023-05-06T18:24:34.956Z,0.00
2023-05-06T18:27:02.380Z,0.00
2023-05-06T18:29:30.354Z,0.00
2023-05-06T18:31:57.615Z,0.00
2023-05-06T18:34:24.476Z,0.00
2023-05-06T18:36:51.406Z,0.00
2023-05-06T18:39:18.133Z,0.00
2023-05-06T18:41:44.983Z,0.00
2023-05-06T18:44:11.922Z,0.00
2023-05-06T18:46:38.739Z,0.00
2023-05-06T18:49:05.909Z,0.10
2023-05-06T18:51:32.770Z,0.00
2023-05-06T18:53:59.819Z,0.00
2023-05-06T18:56:26.559Z,0.00
2023-05-06T18:58:53.287Z,0.00
2023-05-06T19:01:20.162Z,0.00
2023-05-06T19:03:47.007Z,0.00
2023-05-06T19:06:13.914Z,0.00
2023-05-06T19:08:40.828Z,0.00
2023-05-06T19:11:19.147Z,0.10
2023-05-06T19:13:46.290Z,0.00
2023-05-06T19:16:13.703Z,0.10
2023-05-06T19:18:40.575Z,0.03
2023-05-06T19:21:10.035Z,0.10
2023-05-06T19:23:36.888Z,0.05
2023-05-06T19:26:10.957Z,0.10
2023-05-06T19:28:39.397Z,0.00
2023-05-06T19:31:10.581Z,0.10
2023-05-06T19:33:38.812Z,0.10
2023-05-06T19:36:06.092Z,0.08
2023-05-06T19:38:32.992Z,0.00
2023-05-06T19:40:59.712Z,0.00
2023-05-06T19:43:26.571Z,0.00
2023-05-06T19:45:53.447Z,0.00
2023-05-06T19:48:20.647Z,0.00
2023-05-06T19:50:47.393Z,0.00
2023-05-06T19:53:14.143Z,0.00
2023-05-06T19:55:41.115Z,0.03
2023-05-06T19:58:07.944Z,0.00
2023-05-06T20:00:34.836Z,0.10
2023-05-06T20:03:01.819Z,0.10
2023-05-06T20:05:30.917Z,0.03
2023-05-06T20:07:59.928Z,0.10
2023-05-06T20:10:27.443Z,0.10
2023-05-06T20:12:57.222Z,0.10
2023-05-06T20:15:24.480Z,0.08
2023-05-06T20:17:51.310Z,0.10
2023-05-06T20:20:19.126Z,0.10
2023-05-06T20:22:46.065Z,0.10
2023-05-06T20:25:17.510Z,0.10
2023-05-06T20:27:45.181Z,0.10
2023-05-06T20:30:12.489Z,0.10
2023-05-06T20:32:40.507Z,0.10
2023-05-06T20:35:08.159Z,0.10
2023-05-06T20:37:36.140Z,0.10
2023-05-06T20:40:07.903Z,0.10
2023-05-06T20:42:34.884Z,0.00
2023-05-06T20:45:02.134Z,0.10
2023-05-06T20:47:28.989Z,0.10
2023-05-06T20:49:56.753Z,0.03
2023-05-06T20:52:23.629Z,0.03
2023-05-06T20:54:50.513Z,0.10
2023-05-06T20:57:17.727Z,0.00
2023-05-06T20:59:44.755Z,0.00
2023-05-06T21:02:11.753Z,0.00
2023-05-06T21:04:38.738Z,0.00
2023-05-06T21:07:05.567Z,0.10
2023-05-06T21:09:32.469Z,0.03
2023-05-06T21:11:59.719Z,0.05
2023-05-06T21:14:27.373Z,0.03
2023-05-06T21:16:54.277Z,0.00
2023-05-06T21:19:21.117Z,0.10
2023-05-06T21:21:48.383Z,0.00
2023-05-06T21:24:15.323Z,0.00
2023-05-06T21:26:42.215Z,0.00
2023-05-06T21:29:09.138Z,0.00
2023-05-06T21:31:36.174Z,0.00
2023-05-06T21:34:04.243Z,0.08
2023-05-06T21:36:31.294Z,0.00
2023-05-06T21:39:16.109Z,0.00
2023-05-06T21:41:42.850Z,0.10
2023-05-06T21:44:10.298Z,0.00
2023-05-06T21:46:37.912Z,0.00
2023-05-06T21:49:04.984Z,0.10
2023-05-06T21:51:33.590Z,0.00
2023-05-06T21:54:00.918Z,0.00
2023-05-06T21:56:27.721Z,0.00
2023-05-06T21:58:58.416Z,0.00
2023-05-06T22:01:29.340Z,0.00
2023-05-06T22:03:56.365Z,0.03
2023-05-06T22:06:23.374Z,0.00
2023-05-06T22:08:50.166Z,0.00
2023-05-06T22:11:17.312Z,0.00
2023-05-06T22:13:44.120Z,0.00
2023-05-06T22:16:11.027Z,0.00
2023-05-06T22:18:41.325Z,0.00
2023-05-06T22:21:09.515Z,0.00
2023-05-06T22:23:36.381Z,0.00
2023-05-06T22:26:03.200Z,0.00
2023-05-06T22:28:29.972Z,0.10
2023-05-06T22:30:57.296Z,0.00
2023-05-06T22:33:24.119Z,0.00
2023-05-06T22:35:50.980Z,0.00
2023-05-06T22:38:17.733Z,0.00
2023-05-06T22:40:44.505Z,0.10
2023-05-06T22:43:11.229Z,0.08
2023-05-06T22:45:38.109Z,0.00
2023-05-06T22:48:05.460Z,0.00
2023-05-06T22:50:32.300Z,0.00
2023-05-06T22:53:04.911Z,0.00
2023-05-06T22:55:38.390Z,0.08
2023-05-06T22:58:05.271Z,0.00
2023-05-06T23:00:32.457Z,0.00
2023-05-06T23:02:59.307Z,0.00
2023-05-06T23:05:26.166Z,0.00
2023-05-06T23:07:52.888Z,0.05
2023-05-06T23:10:19.748Z,0.00
2023-05-06T23:12:46.538Z,0.00
2023-05-06T23:15:13.426Z,0.10
2023-05-06T23:17:40.458Z,0.00
2023-05-06T23:20:08.088Z,0.03
2023-05-06T23:22:34.835Z,0.00
2023-05-06T23:25:01.564Z,0.00
2023-05-06T23:27:28.353Z,0.00
2023-05-06T23:29:55.060Z,0.00
2023-05-06T23:32:21.821Z,0.00
2023-05-06T23:34:49.190Z,0.10
2023-05-06T23:37:17.549Z,0.00
2023-05-06T23:39:44.311Z,0.00
2023-05-06T23:42:11.242Z,0.08
2023-05-06T23:44:37.951Z,0.00
2023-05-06T23:47:04.788Z,0.00
2023-05-06T23:49:31.991Z,0.00
2023-05-06T23:51:58.769Z,0.00
2023-05-06T23:54:25.798Z,0.00
2023-05-06T23:56:52.785Z,0.00
2023-05-06T23:59:19.599Z,0.00
